C.de Malaga — EAJW — position and weather

sailwx.info

Track history (hours):
 
Tides and Currents Weather Stations Pressure Air Temp Water Temp Dewpoint Dewpoint Depression Visibility Wind Speed Wind Dir Waves Ship Positions

C.de Malaga

Last reported at 2018-Jan-22 23:39 UTC. Time now 2018-Jan-23 04:26 UTC.
Position N 36°07' W 005°23'.

Length 137 m; draft 3.7 m.

Type: Passenger vessel. MMSI: 224549000.

Date/timePositionNaut miles runAvg speedWind from/ knotsBaromVisibWave heightAir tempDewpointWater temp
2018-Jan-22 23:39N 36°07' W 005°23'214.1
2018-Jan-22 23:30N 36°05' W 005°23'815.2
2018-Jan-22 23:00N 35°58' W 005°26'4 2.3
2018-Jan-22 21:09N 35°56' W 005°30'211.7
2018-Jan-22 21:00N 35°57' W 005°29'612.0
2018-Jan-22 20:30N 36°02' W 005°24'2 0.8
2018-Jan-22 18:08N 36°03' W 005°22'213.4
2018-Jan-22 18:00N 36°01' W 005°21'611.2
2018-Jan-22 17:30N 35°57' W 005°26'3 1.3
2018-Jan-22 15:02N 35°56' W 005°30'014.5
2018-Jan-22 15:01N 35°57' W 005°30'712.1
2018-Jan-22 14:27N 36°02' W 005°25'2 0.8
2018-Jan-22 11:44N 36°03' W 005°23'416.3
2018-Jan-22 11:30N 35°60' W 005°24'6 1.9
2018-Jan-22 08:38N 35°56' W 005°30'111.1
2018-Jan-22 08:31N 35°57' W 005°29'10 1.3
2018-Jan-22 00:55N 36°07' W 005°24'614.4
2018-Jan-22 00:30N 36°01' W 005°23'7 2.9
2018-Jan-21 22:08N 35°56' W 005°30'111.8
2018-Jan-21 22:00N 35°57' W 005°29'510.7
2018-Jan-21 21:30N 36°01' W 005°24'7 2.9
2018-Jan-21 19:13N 36°08' W 005°24'414.6
2018-Jan-21 18:58N 36°04' W 005°23'715.4
2018-Jan-21 18:30N 35°58' W 005°27'3 1.4
2018-Jan-21 16:22N 35°56' W 005°30'412.1
2018-Jan-21 16:01N 35°59' W 005°27'611.7
2018-Jan-21 15:30N 36°05' W 005°24'2 0.9
2018-Jan-21 13:16N 36°07' W 005°23'414.6
2018-Jan-21 13:00N 36°03' W 005°23'816.2
2018-Jan-21 12:31N 35°56' W 005°29'1 0.4
2018-Jan-21 09:17N 35°56' W 005°30'310.6
2018-Jan-21 09:01N 35°59' W 005°28'9 3.7
2018-Jan-21 06:32N 36°08' W 005°26'1 5.8
2018-Jan-21 06:23N 36°09' W 005°26'4 9.5
2018-Jan-21 06:00N 36°06' W 005°23'713.6
2018-Jan-21 05:31N 35°59' W 005°24'8 3.3
2018-Jan-21 03:03N 35°53' W 005°31'312.3
2018-Jan-21 02:48N 35°56' W 005°30'413.3
2018-Jan-21 02:30N 35°60' W 005°27'713.1
2018-Jan-21 02:00N 36°06' W 005°24'2 1.2
2018-Jan-21 00:21N 36°08' W 005°23'411.9
2018-Jan-21 00:00N 36°03' W 005°23'715.3
2018-Jan-20 23:30N 35°57' W 005°27'2 1.1
2018-Jan-20 21:19N 35°56' W 005°30'411.3
2018-Jan-20 21:00N 35°59' W 005°28'9 3.5
2018-Jan-20 18:20N 36°08' W 005°24'514.3
2018-Jan-20 18:00N 36°04' W 005°23'714.7
2018-Jan-20 17:30N 35°57' W 005°27'2 0.7
2018-Jan-20 14:28N 35°56' W 005°30'613.3
2018-Jan-20 14:00N 36°01' W 005°25'4 1.6
2018-Jan-20 11:23N 36°05' W 005°23'615.4
2018-Jan-20 11:00N 35°59' W 005°25'5 2.0
2018-Jan-20 08:25N 35°56' W 005°30'510.6
2018-Jan-20 07:59N 36°00' W 005°27'9 1.2
2018-Jan-20 00:34N 36°09' W 005°24'0 3.9
2018-Jan-20 00:27N 36°09' W 005°24'2 4.7
2018-Jan-19 23:59N 36°06' W 005°23'3 6.8
2018-Jan-19 23:30N 36°03' W 005°23'714.3
2018-Jan-19 23:00N 35°57' W 005°28'5 8.0
2018-Jan-19 22:23N 35°53' W 005°31'0 0.0
2018-Jan-19 22:00N 35°53' W 005°31'0 0.0
2018-Jan-19 21:30N 35°53' W 005°31'0 0.0
2018-Jan-19 21:00N 35°53' W 005°31'1 2.8
2018-Jan-19 20:30N 35°54' W 005°31'612.7
2018-Jan-19 20:00N 35°60' W 005°27'613.0
2018-Jan-19 19:31N 36°06' W 005°24'3 6.3
2018-Jan-19 19:00N 36°08' W 005°26'0 0.0
2018-Jan-19 18:30N 36°08' W 005°26'0 0.0
2018-Jan-19 18:00N 36°08' W 005°26'2 3.2
2018-Jan-19 17:30N 36°09' W 005°25'612.9
2018-Jan-19 17:00N 36°02' W 005°24'714.7
2018-Jan-19 16:31N 35°56' W 005°29'4 7.4
2018-Jan-19 15:59N 35°53' W 005°31'0 0.0
2018-Jan-19 15:15N 35°53' W 005°31'0 0.0
2018-Jan-19 15:00N 35°53' W 005°31'4 8.6
2018-Jan-19 14:30N 35°57' W 005°30'713.1
2018-Jan-19 14:01N 36°02' W 005°25'612.9
2018-Jan-19 13:31N 36°08' W 005°24'2 3.1
2018-Jan-19 13:01N 36°08' W 005°26'0 0.0
2018-Jan-19 12:30N 36°08' W 005°26'0 0.1
2018-Jan-19 12:00N 36°08' W 005°26'3 6.6
2018-Jan-19 11:30N 36°06' W 005°23'713.7
2018-Jan-19 11:00N 35°59' W 005°24'815.6
2018-Jan-19 10:30N 35°54' W 005°31'1 1.8
2018-Jan-19 10:01N 35°53' W 005°31'0 0.0
2018-Jan-19 09:31N 35°53' W 005°31'0 0.0
2018-Jan-19 09:01N 35°53' W 005°31'3 5.8
2018-Jan-19 08:30N 35°56' W 005°30'611.7
2018-Jan-19 08:01N 36°01' W 005°26'713.2
2018-Jan-19 07:30N 36°07' W 005°24'2 4.6
2018-Jan-19 07:00N 36°08' W 005°26'0 0.0
2018-Jan-19 06:30N 36°08' W 005°26'0 0.0
2018-Jan-19 06:00N 36°08' W 005°26'0 0.0
2018-Jan-19 05:30N 36°08' W 005°26'0 0.0
2018-Jan-19 05:00N 36°08' W 005°26'0 0.0
2018-Jan-19 04:30N 36°08' W 005°26'0 0.0
2018-Jan-19 04:01N 36°08' W 005°26'0 0.0
2018-Jan-19 03:30N 36°08' W 005°26'0 0.0
2018-Jan-19 03:00N 36°08' W 005°26'0 0.0
2018-Jan-19 02:30N 36°08' W 005°26'0 0.7
2018-Jan-19 02:00N 36°08' W 005°26'4 8.0
2018-Jan-19 01:30N 36°05' W 005°23'713.9
2018-Jan-19 01:00N 35°58' W 005°26'612.7
2018-Jan-19 00:30N 35°53' W 005°31'1 1.0
2018-Jan-18 23:59N 35°53' W 005°31'0 0.0
2018-Jan-18 23:29N 35°53' W 005°31'0 0.2
2018-Jan-18 22:54N 35°53' W 005°31'4 9.5
2018-Jan-18 22:30N 35°57' W 005°31'713.3
2018-Jan-18 22:00N 36°01' W 005°25'714.0
2018-Jan-18 21:30N 36°08' W 005°24'2 3.2
2018-Jan-18 21:00N 36°08' W 005°26'0 0.0
2018-Jan-18 20:30N 36°08' W 005°26'2 3.6
2018-Jan-18 20:00N 36°09' W 005°24'1 1.5
2018-Jan-18 19:30N 36°08' W 005°24'713.2
2018-Jan-18 19:00N 36°01' W 005°24'713.3
2018-Jan-18 18:30N 35°56' W 005°29'4 7.5
2018-Jan-18 18:00N 35°53' W 005°31'0 0.0
2018-Jan-18 17:30N 35°53' W 005°31'0 0.0
2018-Jan-18 17:00N 35°53' W 005°31'0 0.0
2018-Jan-18 16:30N 35°53' W 005°31'2 4.0
2018-Jan-18 16:00N 35°55' W 005°32'612.6
2018-Jan-18 15:30N 35°60' W 005°27'612.1
2018-Jan-18 15:01N 36°05' W 005°23'4 8.1
2018-Jan-18 14:30N 36°08' W 005°26'0 0.4
2018-Jan-18 14:01N 36°08' W 005°26'0 0.0
2018-Jan-18 13:30N 36°08' W 005°26'0 0.9
2018-Jan-18 13:01N 36°08' W 005°26'5 9.3
2018-Jan-18 12:31N 36°04' W 005°23'713.7
2018-Jan-18 12:01N 35°58' W 005°26'612.8
2018-Jan-18 11:30N 35°53' W 005°31'0 0.2
2018-Jan-18 11:01N 35°53' W 005°31'0 0.0
2018-Jan-18 10:31N 35°53' W 005°31'0 0.0
2018-Jan-18 10:01N 35°53' W 005°31'0 0.2
2018-Jan-18 09:30N 35°53' W 005°31'5 9.6
2018-Jan-18 09:00N 35°58' W 005°30'611.6
2018-Jan-18 08:30N 36°02' W 005°25'612.8
2018-Jan-18 08:00N 36°08' W 005°25'1 2.8
2018-Jan-18 07:30N 36°08' W 005°26'0 0.0
2018-Jan-18 07:00N 36°08' W 005°26'0 0.0
2018-Jan-18 06:30N 36°08' W 005°26'0 0.0
2018-Jan-18 06:00N 36°08' W 005°26'0 0.0
2018-Jan-18 05:30N 36°08' W 005°26'0 0.0
2018-Jan-18 05:00N 36°08' W 005°26'0 0.0
2018-Jan-18 04:30N 36°08' W 005°26'0 0.0
2018-Jan-18 04:00N 36°08' W 005°26'0 0.0
2018-Jan-18 03:30N 36°08' W 005°26'0 0.0
2018-Jan-18 03:00N 36°08' W 005°26'0 0.0
2018-Jan-18 02:30N 36°08' W 005°26'0 0.0
2018-Jan-18 02:00N 36°08' W 005°26'0 0.0
2018-Jan-18 01:30N 36°08' W 005°26'2 4.1
2018-Jan-18 01:01N 36°07' W 005°24'1413.8
2018-Jan-18 00:00N 35°55' W 005°31'114.1
2018-Jan-17 23:58N 35°54' W 005°31'  
Track history (hours):
 
Tides and Currents Weather Stations Pressure Air Temp Water Temp Dewpoint Dewpoint Depression Visibility Wind Speed Wind Dir Waves Ship Positions

C.de Malaga

Last reported at 2018-Jan-22 23:39 UTC. Time now 2018-Jan-23 04:26 UTC.
Position N 36°07' W 005°23'.

Length 137 m; draft 3.7 m.

Type: Passenger vessel. MMSI: 224549000.

Date/timePositionNaut miles runAvg speedWind from/ knotsBaromVisibWave heightAir tempDewpointWater temp
2018-Jan-22 23:39N 36°07' W 005°23'214.1
2018-Jan-22 23:30N 36°05' W 005°23'815.2
2018-Jan-22 23:00N 35°58' W 005°26'4 2.3
2018-Jan-22 21:09N 35°56' W 005°30'211.7
2018-Jan-22 21:00N 35°57' W 005°29'612.0
2018-Jan-22 20:30N 36°02' W 005°24'2 0.8
2018-Jan-22 18:08N 36°03' W 005°22'213.4
2018-Jan-22 18:00N 36°01' W 005°21'611.2
2018-Jan-22 17:30N 35°57' W 005°26'3 1.3
2018-Jan-22 15:02N 35°56' W 005°30'014.5
2018-Jan-22 15:01N 35°57' W 005°30'712.1
2018-Jan-22 14:27N 36°02' W 005°25'2 0.8
2018-Jan-22 11:44N 36°03' W 005°23'416.3
2018-Jan-22 11:30N 35°60' W 005°24'6 1.9
2018-Jan-22 08:38N 35°56' W 005°30'111.1
2018-Jan-22 08:31N 35°57' W 005°29'10 1.3
2018-Jan-22 00:55N 36°07' W 005°24'614.4
2018-Jan-22 00:30N 36°01' W 005°23'7 2.9
2018-Jan-21 22:08N 35°56' W 005°30'111.8
2018-Jan-21 22:00N 35°57' W 005°29'510.7
2018-Jan-21 21:30N 36°01' W 005°24'7 2.9
2018-Jan-21 19:13N 36°08' W 005°24'414.6
2018-Jan-21 18:58N 36°04' W 005°23'715.4
2018-Jan-21 18:30N 35°58' W 005°27'3 1.4
2018-Jan-21 16:22N 35°56' W 005°30'412.1
2018-Jan-21 16:01N 35°59' W 005°27'611.7
2018-Jan-21 15:30N 36°05' W 005°24'2 0.9
2018-Jan-21 13:16N 36°07' W 005°23'414.6
2018-Jan-21 13:00N 36°03' W 005°23'816.2
2018-Jan-21 12:31N 35°56' W 005°29'1 0.4
2018-Jan-21 09:17N 35°56' W 005°30'310.6
2018-Jan-21 09:01N 35°59' W 005°28'9 3.7
2018-Jan-21 06:32N 36°08' W 005°26'1 5.8
2018-Jan-21 06:23N 36°09' W 005°26'4 9.5
2018-Jan-21 06:00N 36°06' W 005°23'713.6
2018-Jan-21 05:31N 35°59' W 005°24'8 3.3
2018-Jan-21 03:03N 35°53' W 005°31'312.3
2018-Jan-21 02:48N 35°56' W 005°30'413.3
2018-Jan-21 02:30N 35°60' W 005°27'713.1
2018-Jan-21 02:00N 36°06' W 005°24'2 1.2
2018-Jan-21 00:21N 36°08' W 005°23'411.9
2018-Jan-21 00:00N 36°03' W 005°23'715.3
2018-Jan-20 23:30N 35°57' W 005°27'2 1.1
2018-Jan-20 21:19N 35°56' W 005°30'411.3
2018-Jan-20 21:00N 35°59' W 005°28'9 3.5
2018-Jan-20 18:20N 36°08' W 005°24'514.3
2018-Jan-20 18:00N 36°04' W 005°23'714.7
2018-Jan-20 17:30N 35°57' W 005°27'2 0.7
2018-Jan-20 14:28N 35°56' W 005°30'613.3
2018-Jan-20 14:00N 36°01' W 005°25'4 1.6
2018-Jan-20 11:23N 36°05' W 005°23'615.4
2018-Jan-20 11:00N 35°59' W 005°25'5 2.0
2018-Jan-20 08:25N 35°56' W 005°30'510.6
2018-Jan-20 07:59N 36°00' W 005°27'9 1.2
2018-Jan-20 00:34N 36°09' W 005°24'0 3.9
2018-Jan-20 00:27N 36°09' W 005°24'2 4.7
2018-Jan-19 23:59N 36°06' W 005°23'3 6.8
2018-Jan-19 23:30N 36°03' W 005°23'714.3
2018-Jan-19 23:00N 35°57' W 005°28'5 8.0
2018-Jan-19 22:23N 35°53' W 005°31'0 0.0
2018-Jan-19 22:00N 35°53' W 005°31'0 0.0
2018-Jan-19 21:30N 35°53' W 005°31'0 0.0
2018-Jan-19 21:00N 35°53' W 005°31'1 2.8
2018-Jan-19 20:30N 35°54' W 005°31'612.7
2018-Jan-19 20:00N 35°60' W 005°27'613.0
2018-Jan-19 19:31N 36°06' W 005°24'3 6.3
2018-Jan-19 19:00N 36°08' W 005°26'0 0.0
2018-Jan-19 18:30N 36°08' W 005°26'0 0.0
2018-Jan-19 18:00N 36°08' W 005°26'2 3.2
2018-Jan-19 17:30N 36°09' W 005°25'612.9
2018-Jan-19 17:00N 36°02' W 005°24'714.7
2018-Jan-19 16:31N 35°56' W 005°29'4 7.4
2018-Jan-19 15:59N 35°53' W 005°31'0 0.0
2018-Jan-19 15:15N 35°53' W 005°31'0 0.0
2018-Jan-19 15:00N 35°53' W 005°31'4 8.6
2018-Jan-19 14:30N 35°57' W 005°30'713.1
2018-Jan-19 14:01N 36°02' W 005°25'612.9
2018-Jan-19 13:31N 36°08' W 005°24'2 3.1
2018-Jan-19 13:01N 36°08' W 005°26'0 0.0
2018-Jan-19 12:30N 36°08' W 005°26'0 0.1
2018-Jan-19 12:00N 36°08' W 005°26'3 6.6
2018-Jan-19 11:30N 36°06' W 005°23'713.7
2018-Jan-19 11:00N 35°59' W 005°24'815.6
2018-Jan-19 10:30N 35°54' W 005°31'1 1.8
2018-Jan-19 10:01N 35°53' W 005°31'0 0.0
2018-Jan-19 09:31N 35°53' W 005°31'0 0.0
2018-Jan-19 09:01N 35°53' W 005°31'3 5.8
2018-Jan-19 08:30N 35°56' W 005°30'611.7
2018-Jan-19 08:01N 36°01' W 005°26'713.2
2018-Jan-19 07:30N 36°07' W 005°24'2 4.6
2018-Jan-19 07:00N 36°08' W 005°26'0 0.0
2018-Jan-19 06:30N 36°08' W 005°26'0 0.0
2018-Jan-19 06:00N 36°08' W 005°26'0 0.0
2018-Jan-19 05:30N 36°08' W 005°26'0 0.0
2018-Jan-19 05:00N 36°08' W 005°26'0 0.0
2018-Jan-19 04:30N 36°08' W 005°26'0 0.0
2018-Jan-19 04:01N 36°08' W 005°26'0 0.0
2018-Jan-19 03:30N 36°08' W 005°26'0 0.0
2018-Jan-19 03:00N 36°08' W 005°26'0 0.0
2018-Jan-19 02:30N 36°08' W 005°26'0 0.7
2018-Jan-19 02:00N 36°08' W 005°26'4 8.0
2018-Jan-19 01:30N 36°05' W 005°23'713.9
2018-Jan-19 01:00N 35°58' W 005°26'612.7
2018-Jan-19 00:30N 35°53' W 005°31'1 1.0
2018-Jan-18 23:59N 35°53' W 005°31'0 0.0
2018-Jan-18 23:29N 35°53' W 005°31'0 0.2
2018-Jan-18 22:54N 35°53' W 005°31'4 9.5
2018-Jan-18 22:30N 35°57' W 005°31'713.3
2018-Jan-18 22:00N 36°01' W 005°25'714.0
2018-Jan-18 21:30N 36°08' W 005°24'2 3.2
2018-Jan-18 21:00N 36°08' W 005°26'0 0.0
2018-Jan-18 20:30N 36°08' W 005°26'2 3.6
2018-Jan-18 20:00N 36°09' W 005°24'1 1.5
2018-Jan-18 19:30N 36°08' W 005°24'713.2
2018-Jan-18 19:00N 36°01' W 005°24'713.3
2018-Jan-18 18:30N 35°56' W 005°29'4 7.5
2018-Jan-18 18:00N 35°53' W 005°31'0 0.0
2018-Jan-18 17:30N 35°53' W 005°31'0 0.0
2018-Jan-18 17:00N 35°53' W 005°31'0 0.0
2018-Jan-18 16:30N 35°53' W 005°31'2 4.0
2018-Jan-18 16:00N 35°55' W 005°32'612.6
2018-Jan-18 15:30N 35°60' W 005°27'612.1
2018-Jan-18 15:01N 36°05' W 005°23'4 8.1
2018-Jan-18 14:30N 36°08' W 005°26'0 0.4
2018-Jan-18 14:01N 36°08' W 005°26'0 0.0
2018-Jan-18 13:30N 36°08' W 005°26'0 0.9
2018-Jan-18 13:01N 36°08' W 005°26'5 9.3
2018-Jan-18 12:31N 36°04' W 005°23'713.7
2018-Jan-18 12:01N 35°58' W 005°26'612.8
2018-Jan-18 11:30N 35°53' W 005°31'0 0.2
2018-Jan-18 11:01N 35°53' W 005°31'0 0.0
2018-Jan-18 10:31N 35°53' W 005°31'0 0.0
2018-Jan-18 10:01N 35°53' W 005°31'0 0.2
2018-Jan-18 09:30N 35°53' W 005°31'5 9.6
2018-Jan-18 09:00N 35°58' W 005°30'611.6
2018-Jan-18 08:30N 36°02' W 005°25'612.8
2018-Jan-18 08:00N 36°08' W 005°25'1 2.8
2018-Jan-18 07:30N 36°08' W 005°26'0 0.0
2018-Jan-18 07:00N 36°08' W 005°26'0 0.0
2018-Jan-18 06:30N 36°08' W 005°26'0 0.0
2018-Jan-18 06:00N 36°08' W 005°26'0 0.0
2018-Jan-18 05:30N 36°08' W 005°26'0 0.0
2018-Jan-18 05:00N 36°08' W 005°26'0 0.0
2018-Jan-18 04:30N 36°08' W 005°26'0 0.0
2018-Jan-18 04:00N 36°08' W 005°26'0 0.0
2018-Jan-18 03:30N 36°08' W 005°26'0 0.0
2018-Jan-18 03:00N 36°08' W 005°26'0 0.0
2018-Jan-18 02:30N 36°08' W 005°26'0 0.0
2018-Jan-18 02:00N 36°08' W 005°26'0 0.0
2018-Jan-18 01:30N 36°08' W 005°26'2 4.1
2018-Jan-18 01:01N 36°07' W 005°24'1413.8
2018-Jan-18 00:00N 35°55' W 005°31'114.1
2018-Jan-17 23:58N 35°54' W 005°31'  

Dump ship's entire track history